Time;durP1;ratioP1;P1;durP2;ratioP2;P2;SDS_P1;SDS_P2;PMS_P1;PMS_P2;Temp;Humidity;BMP_temperature;BMP_pressure;BME280_temperature;BME280_humidity;BME280_pressure;Samples;Min_cycle;Max_cycle;Signal;HPM_P1;HPM_P2
2022/06/02 00:01:33;;;;;;;4.68;4.22;;;;;;;15.44;100.00;96672.56;5105559;28;20181;-57
2022/06/02 00:04:07;;;;;;;5.32;4.40;;;;;;;15.45;100.00;96671.56;5089899;28;20208;-50
2022/06/02 00:06:47;;;;;;;5.47;4.65;;;;;;;15.46;100.00;96664.41;5078983;28;20205;-51
2022/06/02 00:09:34;;;;;;;5.60;4.78;;;;;;;15.46;100.00;96669.75;5086215;28;20217;-52
2022/06/02 00:12:09;;;;;;;4.97;4.65;;;;;;;15.48;100.00;96675.72;5062143;28;20196;-52
2022/06/02 00:14:42;;;;;;;5.45;5.05;;;;;;;15.46;100.00;96675.09;5067758;28;20221;-52
2022/06/02 00:17:19;;;;;;;5.03;4.65;;;;;;;15.51;100.00;96678.09;5064000;28;20244;-51
2022/06/02 00:19:52;;;;;;;5.18;4.78;;;;;;;15.47;100.00;96682.09;5065998;28;20526;-52
2022/06/02 00:22:27;;;;;;;5.60;5.10;;;;;;;15.48;100.00;96673.06;5074452;28;20209;-53
2022/06/02 00:25:00;;;;;;;5.03;4.63;;;;;;;15.49;100.00;96674.75;5075315;28;20569;-53
2022/06/02 00:27:33;;;;;;;5.55;5.10;;;;;;;15.49;100.00;96669.44;5088471;28;20209;-58
2022/06/02 00:30:07;;;;;;;5.28;4.88;;;;;;;15.49;100.00;96680.09;5091606;28;20217;-58
2022/06/02 00:32:44;;;;;;;5.65;5.28;;;;;;;15.49;100.00;96666.78;5078851;28;20206;-58
2022/06/02 00:35:17;;;;;;;6.07;5.53;;;;;;;15.51;100.00;96666.59;5085177;28;20216;-58
2022/06/02 00:37:49;;;;;;;5.20;4.80;;;;;;;15.52;100.00;96679.75;5090883;28;20253;-57
2022/06/02 00:40:16;;;;;;;5.70;5.15;;;;;;;15.53;100.00;96681.41;5090930;28;20209;-59
2022/06/02 00:42:57;;;;;;;6.72;6.13;;;;;;;15.51;100.00;96679.94;5078855;28;20623;-62
2022/06/02 00:45:24;;;;;;;6.57;6.00;;;;;;;15.53;100.00;96683.25;5089930;28;20213;-60
2022/06/02 00:47:54;;;;;;;6.13;5.60;;;;;;;15.49;100.00;96688.09;5087041;28;20592;-52
2022/06/02 00:50:42;;;;;;;6.82;5.28;;;;;;;15.49;100.00;96692.59;5080376;28;20217;-53
2022/06/02 00:53:16;;;;;;;6.00;5.60;;;;;;;15.49;100.00;96697.91;5056432;28;20242;-53
2022/06/02 00:58:43;;;;;;;6.25;5.70;;;;;;;15.43;100.00;96686.09;5064222;28;20222;-52
2022/06/02 01:01:13;;;;;;;6.35;5.82;;;;;;;15.38;100.00;96689.25;5077480;28;20647;-52
2022/06/02 01:03:42;;;;;;;6.90;6.20;;;;;;;15.42;100.00;96687.09;5064391;28;20599;-54
2022/06/02 01:06:52;;;;;;;7.22;6.53;;;;;;;15.45;100.00;96692.91;5077656;28;20657;-51
2022/06/02 01:09:47;;;;;;;5.97;5.47;;;;;;;15.44;100.00;96693.09;5001903;28;20539;-52
2022/06/02 01:12:41;;;;;;;7.05;6.35;;;;;;;15.46;100.00;96691.06;4996883;28;20220;-53
2022/06/02 01:15:16;;;;;;;7.18;6.57;;;;;;;15.39;100.00;96696.25;5056146;28;20677;-52
2022/06/02 01:17:52;;;;;;;6.43;5.90;;;;;;;15.36;100.00;96691.28;5065331;28;20202;-56
2022/06/02 01:20:39;;;;;;;7.57;6.88;;;;;;;15.36;100.00;96701.09;5071998;28;20247;-56
2022/06/02 01:23:42;;;;;;;6.35;5.85;;;;;;;15.35;100.00;96700.28;5080705;28;20203;-54
2022/06/02 01:26:50;;;;;;;7.35;6.75;;;;;;;15.36;100.00;96695.78;5072863;28;20608;-56
2022/06/02 01:29:59;;;;;;;8.67;7.83;;;;;;;15.36;100.00;96701.94;5073196;28;20197;-56
2022/06/02 01:32:36;;;;;;;8.57;7.87;;;;;;;15.37;100.00;96706.25;5100519;28;20162;-56
2022/06/02 01:35:08;;;;;;;9.20;8.50;;;;;;;15.36;100.00;96695.78;5100541;28;20202;-57
2022/06/02 01:37:39;;;;;;;9.15;8.25;;;;;;;15.32;100.00;96694.44;5092604;28;20183;-58
2022/06/02 01:40:22;;;;;;;9.67;8.77;;;;;;;15.33;100.00;96704.94;5092521;28;20209;-57
2022/06/02 01:42:55;;;;;;;8.83;7.97;;;;;;;15.37;100.00;96700.09;5092866;28;20190;-56
2022/06/02 01:45:39;;;;;;;9.60;8.80;;;;;;;15.33;100.00;96701.44;5079880;28;20171;-57
2022/06/02 01:48:15;;;;;;;9.77;8.77;;;;;;;15.30;100.00;96697.28;5079812;28;20184;-56
2022/06/02 01:50:51;;;;;;;9.93;9.00;;;;;;;15.28;100.00;96706.44;5078579;28;20289;-56
2022/06/02 01:53:26;;;;;;;10.10;9.10;;;;;;;15.28;100.00;96707.28;5072746;28;20626;-56
2022/06/02 01:56:09;;;;;;;10.67;9.57;;;;;;;15.31;100.00;96712.25;5076573;28;20541;-56
2022/06/02 01:58:45;;;;;;;10.80;9.80;;;;;;;15.33;100.00;96709.44;5076281;28;20218;-53
2022/06/02 02:01:19;;;;;;;10.20;9.20;;;;;;;15.32;100.00;96716.59;5049199;28;20199;-53
2022/06/02 02:03:58;;;;;;;10.20;9.30;;;;;;;15.35;100.00;96710.09;5052950;28;20285;-53
2022/06/02 02:06:29;;;;;;;8.97;8.20;;;;;;;15.32;100.00;96705.94;5056081;28;20203;-53
2022/06/02 02:09:10;;;;;;;9.20;8.47;;;;;;;15.35;100.00;96712.75;5067849;28;20211;-53
2022/06/02 02:11:49;;;;;;;8.87;8.17;;;;;;;15.32;100.00;96716.59;5049729;28;20191;-53
2022/06/02 02:14:27;;;;;;;9.23;8.47;;;;;;;15.37;100.00;96708.09;5071382;28;20206;-53
2022/06/02 02:17:02;;;;;;;9.97;8.97;;;;;;;15.31;100.00;96695.44;5076069;28;20228;-53
2022/06/02 02:19:47;;;;;;;10.00;8.50;;;;;;;15.29;100.00;96690.31;5067890;28;20206;-53
2022/06/02 02:22:19;;;;;;;9.97;8.67;;;;;;;15.31;100.00;96698.09;5078158;28;20186;-53
2022/06/02 02:24:54;;;;;;;9.90;8.90;;;;;;;15.32;100.00;96700.63;5079476;28;20191;-52
2022/06/02 02:27:25;;;;;;;10.40;9.40;;;;;;;15.31;100.00;96698.94;5060733;28;20632;-52
2022/06/02 02:29:58;;;;;;;10.45;9.45;;;;;;;15.32;100.00;96697.94;5064475;28;20294;-52
2022/06/02 02:32:33;;;;;;;12.90;11.57;;;;;;;15.32;100.00;96692.63;5060020;28;20206;-53
2022/06/02 02:35:10;;;;;;;12.80;11.60;;;;;;;15.31;100.00;96695.44;5067225;28;20191;-54
2022/06/02 02:37:41;;;;;;;14.63;13.23;;;;;;;15.30;100.00;96697.28;5057706;28;20384;-52
2022/06/02 02:40:11;;;;;;;15.67;14.17;;;;;;;15.29;100.00;96690.31;5069884;28;20636;-52
2022/06/02 02:42:42;;;;;;;15.67;14.20;;;;;;;15.31;100.00;96690.13;5075190;28;20547;-52
2022/06/02 02:45:24;;;;;;;16.33;14.83;;;;;;;15.29;100.00;96694.78;5070503;28;20214;-53
2022/06/02 02:47:54;;;;;;;15.07;13.70;;;;;;;15.31;100.00;96692.78;5055709;28;20286;-53
2022/06/02 02:50:29;;;;;;;14.77;13.43;;;;;;;15.35;100.00;96699.44;5064956;28;20227;-52
2022/06/02 02:53:00;;;;;;;14.80;13.30;;;;;;;15.34;100.00;96703.09;5067743;28;20293;-53
2022/06/02 02:55:32;;;;;;;13.83;12.47;;;;;;;15.35;100.00;96699.44;5069193;28;20225;-53
2022/06/02 02:58:03;;;;;;;14.10;12.90;;;;;;;15.35;100.00;96702.09;5055226;28;20221;-53
2022/06/02 03:00:34;;;;;;;14.47;12.97;;;;;;;15.36;100.00;96701.94;5063197;28;20199;-54
2022/06/02 03:03:10;;;;;;;12.95;11.85;;;;;;;15.38;100.00;96702.59;5064987;28;20226;-53
2022/06/02 03:05:51;;;;;;;13.83;12.50;;;;;;;15.37;100.00;96698.25;5064280;28;20198;-52
2022/06/02 03:08:21;;;;;;;14.10;12.90;;;;;;;15.35;100.00;96697.59;5060144;28;20221;-53
2022/06/02 03:10:58;;;;;;;14.00;12.53;;;;;;;15.33;100.00;96704.13;5074884;28;20206;-53
2022/06/02 03:13:31;;;;;;;15.20;13.90;;;;;;;15.35;100.00;96702.94;5075107;28;20206;-52
2022/06/02 03:16:02;;;;;;;16.10;14.53;;;;;;;15.35;100.00;96694.94;5058852;28;20223;-54
2022/06/02 03:18:40;;;;;;;15.33;14.00;;;;;;;15.36;100.00;96685.94;5045569;28;20219;-53
2022/06/02 03:21:32;;;;;;;16.23;14.73;;;;;;;15.35;100.00;96688.78;5083727;28;20201;-53
2022/06/02 03:24:13;;;;;;;17.37;15.80;;;;;;;15.35;100.00;96683.44;5088751;28;20197;-54
2022/06/02 03:26:52;;;;;;;16.70;15.30;;;;;;;15.34;100.00;96671.94;5068681;28;20190;-53
2022/06/02 03:29:24;;;;;;;17.70;16.00;;;;;;;15.33;100.00;96669.47;5072234;28;20210;-53
2022/06/02 03:32:03;;;;;;;16.67;15.07;;;;;;;15.31;100.00;96676.78;5062248;28;20199;-52
2022/06/02 03:34:37;;;;;;;17.55;15.80;;;;;;;15.32;100.00;96673.13;5049510;28;20206;-53
2022/06/02 03:37:32;;;;;;;17.43;15.73;;;;;;;15.30;100.00;96669.81;5056407;28;20211;-54
2022/06/02 03:40:11;;;;;;;16.40;14.90;;;;;;;15.30;100.00;96675.16;5062015;28;20269;-53
2022/06/02 03:42:42;;;;;;;15.23;13.73;;;;;;;15.29;100.00;96674.31;5064144;28;20245;-52
2022/06/02 03:45:21;;;;;;;16.87;15.47;;;;;;;15.30;100.00;96680.47;5087300;28;20202;-52
2022/06/02 03:48:03;;;;;;;17.53;15.63;;;;;;;15.30;100.00;96683.16;5082438;28;20179;-53
2022/06/02 03:50:52;;;;;;;17.43;15.73;;;;;;;15.30;100.00;96688.47;5078174;28;20182;-53
2022/06/02 03:53:41;;;;;;;16.63;15.07;;;;;;;15.31;100.00;96684.78;5093685;28;20209;-53
2022/06/02 03:56:16;;;;;;;16.13;14.65;;;;;;;15.34;100.00;96693.25;5076629;28;20183;-52
2022/06/02 03:59:02;;;;;;;16.13;14.63;;;;;;;15.36;100.00;96695.78;5098565;28;20237;-53
2022/06/02 04:01:39;;;;;;;15.73;14.33;;;;;;;15.38;100.00;96691.09;5087392;28;20240;-52
2022/06/02 04:04:18;;;;;;;15.53;14.03;;;;;;;15.40;100.00;96697.94;5077911;28;20234;-51
2022/06/02 04:07:00;;;;;;;14.15;12.55;;;;;;;15.38;100.00;96693.75;5078018;28;20222;-52
2022/06/02 04:09:38;;;;;;;12.85;11.70;;;;;;;15.42;100.00;96690.59;5077608;28;20175;-52
2022/06/02 04:15:18;;;;;;;16.33;13.33;;;;;;;15.45;100.00;96705.38;5077959;28;20179;-52
2022/06/02 04:17:48;;;;;;;14.37;13.13;;;;;;;15.48;100.00;96707.72;5078013;28;20168;-53
2022/06/02 04:20:34;;;;;;;14.40;13.10;;;;;;;15.48;100.00;96705.03;5077335;28;20195;-52
2022/06/02 04:23:23;;;;;;;14.10;12.90;;;;;;;15.51;100.00;96711.91;5078106;28;20200;-53
2022/06/02 04:25:54;;;;;;;15.63;14.20;;;;;;;15.52;100.00;96718.91;5080577;28;20188;-52
2022/06/02 04:28:36;;;;;;;13.70;12.40;;;;;;;15.56;100.00;96723.72;5077671;28;20175;-52
2022/06/02 04:31:14;;;;;;;12.63;11.43;;;;;;;15.59;100.00;96731.38;5070471;28;20194;-52
2022/06/02 04:33:47;;;;;;;13.45;12.23;;;;;;;15.63;100.00;96730.03;5096996;28;20190;-51
2022/06/02 04:36:21;;;;;;;15.30;13.73;;;;;;;15.62;100.00;96728.38;5091730;28;20187;-51
2022/06/02 04:38:54;;;;;;;14.70;13.33;;;;;;;15.65;100.00;96727.19;5080847;28;20242;-52
2022/06/02 04:41:28;;;;;;;14.80;13.53;;;;;;;15.66;100.00;96716.34;5080926;28;20184;-52
2022/06/02 04:44:02;;;;;;;16.52;15.02;;;;;;;15.68;100.00;96714.34;5080308;28;20178;-51
2022/06/02 04:46:45;;;;;;;13.90;12.60;;;;;;;15.79;100.00;96713.97;5087636;28;20207;-51
2022/06/02 04:49:20;;;;;;;14.43;13.15;;;;;;;15.77;100.00;96713.31;5098301;28;20260;-53
2022/06/02 04:51:53;;;;;;;13.60;12.15;;;;;;;15.81;100.00;96716.44;5082017;28;20202;-53
2022/06/02 04:54:29;;;;;;;12.60;11.43;;;;;;;15.84;100.00;96730.25;5084264;28;20191;-52
2022/06/02 04:57:01;;;;;;;13.15;12.05;;;;;;;15.86;100.00;96714.94;5075801;28;20198;-53
2022/06/02 04:59:33;;;;;;;13.60;12.40;;;;;;;15.87;100.00;96731.78;5076945;28;20230;-52
2022/06/02 05:02:09;;;;;;;13.20;12.10;;;;;;;15.92;100.00;96719.56;5076906;28;20191;-52
2022/06/02 05:04:42;;;;;;;14.20;12.90;;;;;;;15.99;100.00;96718.88;5078510;28;20187;-52
2022/06/02 05:07:17;;;;;;;15.17;13.87;;;;;;;15.97;100.00;96715.56;5077038;28;20191;-53
2022/06/02 05:09:49;;;;;;;13.77;12.45;;;;;;;16.01;100.00;96716.88;5075769;28;20302;-52
2022/06/02 05:12:24;;;;;;;14.07;12.68;;;;;;;16.03;100.00;96709.50;5088105;28;20218;-52
2022/06/02 05:14:56;;;;;;;12.53;11.33;;;;;;;16.13;100.00;96715.47;5090465;28;20208;-53
2022/06/02 05:17:46;;;;;;;14.13;13.02;;;;;;;16.16;100.00;96718.59;5080045;28;20191;-53
2022/06/02 05:20:37;;;;;;;14.35;13.07;;;;;;;16.22;100.00;96725.94;5079995;28;20219;-52
2022/06/02 05:23:23;;;;;;;13.98;12.75;;;;;;;16.23;100.00;96726.72;5080904;28;20194;-52
2022/06/02 05:26:05;;;;;;;14.45;13.07;;;;;;;16.28;100.00;96724.38;5097333;28;20224;-53
2022/06/02 05:29:06;;;;;;;14.73;13.33;;;;;;;16.35;100.00;96730.66;5099475;28;20167;-53
2022/06/02 05:31:47;;;;;;;14.32;12.90;;;;;;;16.73;99.57;96735.09;5099418;28;20182;-53
2022/06/02 05:34:54;;;;;;;14.77;13.47;;;;;;;16.88;96.62;96727.97;5094498;28;20191;-52
2022/06/02 05:37:29;;;;;;;14.27;12.98;;;;;;;17.05;96.38;96734.00;5043293;28;20200;-52
2022/06/02 05:40:22;;;;;;;12.77;11.77;;;;;;;17.20;95.17;96739.38;5080261;28;20214;-52
2022/06/02 05:43:06;;;;;;;14.02;12.82;;;;;;;17.37;95.41;96744.38;5078287;28;20195;-52
2022/06/02 05:45:49;;;;;;;15.73;14.10;;;;;;;17.55;91.96;96741.34;5084097;28;20202;-53
2022/06/02 05:48:29;;;;;;;14.88;13.48;;;;;;;17.69;91.21;96740.53;5079768;28;20195;-53
2022/06/02 05:51:01;;;;;;;13.98;12.55;;;;;;;17.80;89.47;96741.94;5086692;28;20178;-53
2022/06/02 05:53:38;;;;;;;14.55;13.18;;;;;;;17.83;88.68;96755.75;5072907;28;20190;-53
2022/06/02 05:56:14;;;;;;;12.73;11.52;;;;;;;17.88;89.72;96756.06;5076853;28;20183;-52
2022/06/02 05:58:54;;;;;;;13.20;12.10;;;;;;;17.92;88.90;96768.00;5079566;28;20171;-52
2022/06/02 06:01:33;;;;;;;13.32;12.05;;;;;;;17.92;88.42;96759.19;5080152;28;20183;-53
2022/06/02 06:04:24;;;;;;;12.52;11.27;;;;;;;18.00;88.63;96764.41;5089379;28;20202;-52
2022/06/02 06:06:58;;;;;;;12.95;11.38;;;;;;;18.07;88.12;96764.50;5091744;28;20194;-53
2022/06/02 06:09:35;;;;;;;13.50;12.20;;;;;;;18.17;87.23;96767.75;5093842;28;20251;-51
2022/06/02 06:12:37;;;;;;;13.18;11.98;;;;;;;18.01;86.75;96783.97;5098040;28;20202;-53
2022/06/02 06:15:09;;;;;;;14.95;11.70;;;;;;;17.98;86.31;96781.69;5067468;28;20198;-50
2022/06/02 06:17:47;;;;;;;15.60;12.45;;;;;;;17.84;88.65;96788.69;5079243;28;20221;-51
2022/06/02 06:20:18;;;;;;;13.75;11.63;;;;;;;17.87;87.81;96786.50;5086166;28;20293;-53
2022/06/02 06:22:56;;;;;;;12.05;10.93;;;;;;;17.82;89.19;96791.53;5077610;28;20297;-53
2022/06/02 06:25:31;;;;;;;12.43;11.27;;;;;;;17.72;89.79;96792.84;5067352;28;20202;-53
2022/06/02 06:28:09;;;;;;;12.32;11.32;;;;;;;17.68;87.52;96796.88;5044269;28;20646;-53
2022/06/02 06:30:48;;;;;;;13.05;12.05;;;;;;;17.72;87.64;96795.50;5059109;28;20260;-54
2022/06/02 06:33:21;;;;;;;16.30;12.27;;;;;;;17.78;88.45;96786.78;5077276;28;20198;-53
2022/06/02 06:36:04;;;;;;;13.20;11.88;;;;;;;18.12;87.64;96783.50;5077129;28;20217;-52
2022/06/02 06:38:45;;;;;;;13.45;12.25;;;;;;;18.54;86.31;96778.28;5094092;28;20218;-52
2022/06/02 06:41:29;;;;;;;13.85;12.63;;;;;;;18.45;84.48;96787.44;5097818;28;20215;-53
2022/06/02 06:44:09;;;;;;;12.70;11.70;;;;;;;18.61;85.03;96791.75;5079743;28;20214;-53
2022/06/02 06:46:41;;;;;;;13.80;12.60;;;;;;;18.50;83.43;96795.72;5092488;28;20186;-53
2022/06/02 06:49:15;;;;;;;15.30;11.93;;;;;;;18.64;83.00;96789.53;5097705;28;20183;-53
2022/06/02 06:51:54;;;;;;;13.73;12.18;;;;;;;18.66;84.22;96790.19;5097676;28;20193;-54
2022/06/02 06:54:26;;;;;;;12.10;11.02;;;;;;;18.50;82.31;96787.69;5098056;28;20205;-53
2022/06/02 06:56:58;;;;;;;12.55;11.55;;;;;;;18.31;83.58;96790.97;5093919;28;20190;-54
2022/06/02 06:59:33;;;;;;;12.35;11.35;;;;;;;18.36;84.17;96794.72;5055582;28;20229;-53
2022/06/02 07:02:12;;;;;;;13.25;12.05;;;;;;;18.24;84.23;96792.75;5045863;28;20209;-54
2022/06/02 07:04:46;;;;;;;12.15;10.98;;;;;;;18.51;84.70;96786.72;5086285;28;20202;-52
2022/06/02 07:07:17;;;;;;;13.13;11.95;;;;;;;18.57;84.63;96785.09;5079883;28;20174;-52
2022/06/02 07:09:51;;;;;;;12.40;11.15;;;;;;;18.73;83.56;96784.88;5077117;28;20207;-52
2022/06/02 07:15:12;;;;;;;12.52;11.52;;;;;;;19.55;81.27;96779.88;5082247;28;20204;-53
2022/06/02 07:17:43;;;;;;;11.80;10.80;;;;;;;20.06;79.23;96783.06;5085478;28;20194;-52
2022/06/02 07:20:22;;;;;;;11.20;10.30;;;;;;;20.33;77.08;96792.97;5067226;28;20210;-52
2022/06/02 07:22:55;;;;;;;11.02;10.13;;;;;;;20.32;76.43;96783.22;5063618;28;20234;-52
2022/06/02 07:25:26;;;;;;;11.52;10.32;;;;;;;20.15;76.17;96790.78;5075156;28;20214;-52
2022/06/02 07:28:00;;;;;;;11.68;10.55;;;;;;;20.01;76.29;96791.75;5053211;28;20214;-52
2022/06/02 07:30:48;;;;;;;10.18;9.23;;;;;;;20.10;76.03;96784.31;5077594;28;20201;-52
2022/06/02 07:33:32;;;;;;;12.23;9.07;;;;;;;20.04;76.81;96780.59;5076671;28;20210;-52
2022/06/02 07:36:25;;;;;;;10.88;9.88;;;;;;;20.06;76.42;96788.44;5051290;28;20206;-53
2022/06/02 07:39:29;;;;;;;12.55;8.95;;;;;;;19.88;78.21;96792.47;5097079;28;20234;-53
2022/06/02 07:42:32;;;;;;;10.23;9.43;;;;;;;19.67;77.00;96789.84;5085310;28;20210;-53
2022/06/02 07:45:31;;;;;;;9.40;8.60;;;;;;;19.52;79.63;96791.00;5082409;28;20212;-52
2022/06/02 07:48:10;;;;;;;12.85;9.00;;;;;;;19.65;78.09;96797.28;5079547;28;20255;-53
2022/06/02 07:50:42;;;;;;;8.35;7.65;;;;;;;19.50;80.18;96793.84;5080482;28;20217;-53
2022/06/02 07:53:17;;;;;;;9.48;8.60;;;;;;;19.52;80.49;96791.81;5077076;28;20218;-52
2022/06/02 07:55:51;;;;;;;9.32;8.38;;;;;;;19.46;79.97;96787.22;5077098;28;20210;-52
2022/06/02 07:58:27;;;;;;;9.15;8.40;;;;;;;19.33;80.51;96789.78;5074722;28;20221;-53
2022/06/02 08:00:57;;;;;;;9.48;8.68;;;;;;;19.41;79.69;96778.94;5071987;28;20213;-52
2022/06/02 08:03:53;;;;;;;8.95;8.25;;;;;;;19.60;80.33;96775.56;5072297;28;20207;-53
2022/06/02 08:06:36;;;;;;;9.50;8.80;;;;;;;19.75;78.48;96780.81;5048073;28;20203;-53
2022/06/02 08:09:34;;;;;;;8.80;7.93;;;;;;;19.85;78.48;96776.75;5073467;28;20202;-52
2022/06/02 08:12:05;;;;;;;10.32;9.13;;;;;;;19.89;77.85;96777.19;5087304;28;20229;-52
2022/06/02 08:14:38;;;;;;;10.20;9.20;;;;;;;20.04;77.38;96785.13;5085908;28;20194;-53
2022/06/02 08:17:20;;;;;;;9.90;8.95;;;;;;;20.02;78.29;96787.16;5095891;28;20206;-52
2022/06/02 08:19:55;;;;;;;9.85;8.90;;;;;;;20.14;78.32;96782.91;5057464;28;20243;-53
2022/06/02 08:22:27;;;;;;;10.35;8.73;;;;;;;20.39;77.22;96786.78;5057298;28;20200;-53
2022/06/02 08:25:06;;;;;;;10.38;9.35;;;;;;;20.38;77.36;96793.16;5061868;28;20647;-51
2022/06/02 08:27:45;;;;;;;10.32;9.32;;;;;;;20.04;77.55;96790.50;5077419;28;20238;-52
2022/06/02 08:30:15;;;;;;;10.00;9.10;;;;;;;20.15;77.08;96801.50;5079938;28;20206;-52
2022/06/02 08:32:53;;;;;;;9.70;8.73;;;;;;;19.95;77.25;96802.41;5091710;28;20202;-54
2022/06/02 08:35:24;;;;;;;10.25;9.25;;;;;;;19.91;78.28;96795.81;5093243;28;20205;-53
2022/06/02 08:38:02;;;;;;;9.55;8.85;;;;;;;20.08;78.02;96789.06;5082256;28;20237;-55
2022/06/02 08:44:28;;;;;;;10.55;9.68;;;;;;;19.92;77.65;96797.44;5064649;28;20199;-52
2022/06/02 08:47:26;;;;;;;8.88;8.00;;;;;;;20.39;77.51;96794.84;5078785;28;20198;-52
2022/06/02 08:50:10;;;;;;;8.40;7.70;;;;;;;20.83;76.63;96792.47;5078463;28;20198;-52
2022/06/02 08:53:07;;;;;;;8.73;8.02;;;;;;;21.19;73.54;96791.31;5078218;28;20198;-54
2022/06/02 08:55:58;;;;;;;8.60;7.80;;;;;;;21.26;73.12;96797.53;5069729;28;20222;-52
2022/06/02 08:58:55;;;;;;;8.50;7.80;;;;;;;21.37;72.84;96798.78;5078828;28;20279;-52
2022/06/02 09:01:54;;;;;;;7.97;7.32;;;;;;;21.83;72.22;96795.03;5079145;28;20210;-52
2022/06/02 09:04:53;;;;;;;7.88;7.28;;;;;;;22.41;70.05;96786.22;5060116;28;20195;-53
2022/06/02 09:07:48;;;;;;;6.90;6.30;;;;;;;23.15;68.07;96789.16;5060421;28;20606;-52
2022/06/02 09:10:43;;;;;;;8.50;7.70;;;;;;;23.40;64.76;96792.72;5071858;28;20203;-52
2022/06/02 09:13:41;;;;;;;8.00;7.30;;;;;;;23.51;61.70;96800.13;5084063;28;20564;-53
2022/06/02 09:16:18;;;;;;;6.75;6.25;;;;;;;23.77;63.53;96797.19;5073452;28;20195;-52
2022/06/02 09:19:01;;;;;;;6.60;6.10;;;;;;;23.78;61.25;96798.00;5057195;28;20202;-53
2022/06/02 09:21:35;;;;;;;7.20;6.60;;;;;;;23.84;62.31;96799.00;5073424;28;20256;-53
2022/06/02 09:24:15;;;;;;;6.93;6.43;;;;;;;23.86;62.17;96802.31;5100201;28;20205;-52
2022/06/02 09:26:55;;;;;;;7.05;6.35;;;;;;;23.60;62.46;96796.09;5060492;28;20183;-52
2022/06/02 09:29:24;;;;;;;7.32;6.63;;;;;;;23.52;62.78;96804.50;5086651;28;20271;-53
2022/06/02 09:32:22;;;;;;;7.75;7.05;;;;;;;23.06;65.84;96798.56;5097160;28;20182;-52
2022/06/02 09:34:56;;;;;;;6.47;5.97;;;;;;;23.15;66.58;96790.00;5094464;28;20305;-53
2022/06/02 09:37:48;;;;;;;6.85;6.25;;;;;;;23.01;65.26;96798.38;5069101;28;20202;-54
2022/06/02 09:40:47;;;;;;;6.60;6.15;;;;;;;22.65;65.57;96801.66;5070957;28;20222;-54
2022/06/02 09:43:46;;;;;;;7.57;6.90;;;;;;;22.32;65.09;96804.47;5089905;28;20256;-52
2022/06/02 09:46:44;;;;;;;8.02;7.38;;;;;;;22.57;65.11;96804.59;5071667;28;20234;-53
2022/06/02 09:49:42;;;;;;;8.00;7.35;;;;;;;23.25;66.43;96802.97;5058279;28;20263;-53
2022/06/02 09:52:13;;;;;;;5.80;5.40;;;;;;;23.55;64.67;96809.44;5063388;28;20205;-52
2022/06/02 09:54:57;;;;;;;7.95;7.00;;;;;;;23.53;65.17;96803.41;5075986;28;20209;-52
2022/06/02 10:00:21;;;;;;;6.85;6.25;;;;;;;24.18;63.65;96803.88;5074480;28;20240;-53
2022/06/02 10:03:01;;;;;;;7.05;6.55;;;;;;;24.40;62.18;96798.84;5065888;28;20210;-53
2022/06/02 10:05:47;;;;;;;7.63;6.93;;;;;;;24.47;61.47;96799.59;5076614;28;20293;-52
2022/06/02 10:08:21;;;;;;;6.18;5.57;;;;;;;24.77;60.17;96792.34;5076284;28;20712;-51
2022/06/02 10:11:04;;;;;;;6.88;6.28;;;;;;;25.01;59.37;96791.41;5076268;28;20198;-52
2022/06/02 10:13:57;;;;;;;6.13;5.57;;;;;;;25.35;61.53;96800.72;5053115;28;20202;-52
2022/06/02 10:17:01;;;;;;;7.13;6.43;;;;;;;25.58;56.81;96795.34;5085330;28;20214;-52
2022/06/02 10:20:05;;;;;;;7.15;6.55;;;;;;;25.78;55.43;96794.19;5047094;28;20210;-54
2022/06/02 10:22:41;;;;;;;6.80;6.30;;;;;;;25.93;56.72;96787.28;5071529;28;20202;-52
2022/06/02 10:25:48;;;;;;;7.40;6.28;;;;;;;26.14;56.76;96791.25;5059816;28;20210;-53
2022/06/02 10:28:52;;;;;;;7.05;6.32;;;;;;;26.09;53.50;96791.13;5037126;28;20202;-53
2022/06/02 10:31:57;;;;;;;7.65;6.25;;;;;;;25.94;54.25;96796.19;5076148;28;20233;-54
2022/06/02 10:35:06;;;;;;;7.10;6.55;;;;;;;25.35;53.47;96795.28;5054212;28;20207;-52
2022/06/02 10:37:57;;;;;;;6.47;5.88;;;;;;;25.13;56.34;96777.94;5062090;28;20554;-55
2022/06/02 10:40:42;;;;;;;7.20;5.45;;;;;;;25.19;58.61;96782.41;5074983;28;20211;-53
2022/06/02 10:43:35;;;;;;;7.40;6.68;;;;;;;25.44;58.35;96785.75;5075521;28;20220;-53
2022/06/02 10:46:47;;;;;;;7.18;6.53;;;;;;;25.30;54.16;96789.72;5032259;28;20210;-52
2022/06/02 10:49:26;;;;;;;6.60;6.00;;;;;;;25.47;54.47;96785.28;5056979;28;20210;-53
2022/06/02 10:52:30;;;;;;;6.13;5.72;;;;;;;26.08;56.80;96778.63;5075709;28;20202;-54
2022/06/02 10:55:30;;;;;;;7.18;5.15;;;;;;;26.35;53.91;96771.69;5072473;28;20250;-54
2022/06/02 10:58:38;;;;;;;8.30;6.07;;;;;;;26.46;50.75;96778.97;5056868;28;20215;-53
2022/06/02 11:01:42;;;;;;;5.95;4.85;;;;;;;26.37;52.48;96774.97;5051055;28;20219;-52
2022/06/02 11:04:53;;;;;;;6.57;6.07;;;;;;;26.44;51.83;96775.66;5067329;28;20206;-55
2022/06/02 11:08:13;;;;;;;7.50;6.22;;;;;;;26.30;50.64;96768.03;5075291;28;20206;-52
2022/06/02 11:10:56;;;;;;;6.57;6.07;;;;;;;26.16;54.06;96772.84;5028931;28;20210;-52
2022/06/02 11:13:42;;;;;;;6.57;5.97;;;;;;;25.63;53.06;96770.28;5075666;28;20536;-53
2022/06/02 11:16:41;;;;;;;6.18;5.65;;;;;;;25.44;54.09;96769.50;5041183;28;20206;-53
2022/06/02 11:19:37;;;;;;;5.43;5.03;;;;;;;25.40;55.10;96767.53;5025400;28;20231;-54
2022/06/02 11:22:35;;;;;;;5.57;5.00;;;;;;;26.05;51.92;96755.53;5074530;28;20666;-54
2022/06/02 11:25:20;;;;;;;4.05;3.75;;;;;;;26.56;53.88;96753.94;5049221;28;20618;-52
2022/06/02 11:28:15;;;;;;;5.70;4.55;;;;;;;26.51;51.62;96751.13;5062225;28;20712;-52
2022/06/02 11:31:16;;;;;;;5.00;4.57;;;;;;;26.27;53.82;96747.66;5075265;28;20583;-52
2022/06/02 11:34:28;;;;;;;5.20;4.80;;;;;;;25.94;53.88;96747.41;5074943;28;20203;-52
2022/06/02 11:37:19;;;;;;;6.05;5.13;;;;;;;25.63;52.82;96746.72;5051065;28;20237;-53
2022/06/02 11:40:10;;;;;;;4.55;4.25;;;;;;;25.89;53.33;96744.63;5076705;28;20241;-53
2022/06/02 11:42:58;;;;;;;4.32;3.90;;;;;;;25.91;54.71;96737.06;5061756;28;20222;-52
2022/06/02 11:45:39;;;;;;;5.15;4.60;;;;;;;25.68;54.39;96744.13;5095059;28;20218;-52
2022/06/02 11:48:20;;;;;;;5.45;5.00;;;;;;;25.47;54.17;96736.53;5076290;28;20206;-52
2022/06/02 11:51:10;;;;;;;5.18;4.78;;;;;;;25.20;55.35;96746.16;5075349;28;20210;-53
2022/06/02 11:53:50;;;;;;;5.28;4.45;;;;;;;25.07;55.89;96722.03;5075190;28;20217;-52
2022/06/02 11:56:26;;;;;;;5.40;4.90;;;;;;;25.32;55.81;96728.06;5075120;28;20206;-53
2022/06/02 11:59:28;;;;;;;7.40;4.88;;;;;;;25.27;54.46;96725.22;5060215;28;20289;-53
2022/06/02 12:02:23;;;;;;;4.22;3.97;;;;;;;25.15;56.78;96729.81;5057183;28;20218;-54
2022/06/02 12:05:21;;;;;;;5.68;4.57;;;;;;;25.13;54.21;96734.63;5071647;28;20213;-53
2022/06/02 12:08:25;;;;;;;4.22;3.78;;;;;;;25.16;57.43;96724.16;5063732;28;20210;-51
2022/06/02 12:11:40;;;;;;;4.60;4.20;;;;;;;25.21;54.76;96727.00;5074704;28;20206;-53
2022/06/02 12:14:23;;;;;;;4.55;4.25;;;;;;;25.28;54.22;96726.91;5050036;28;20221;-53
2022/06/02 12:17:03;;;;;;;4.63;4.25;;;;;;;25.20;54.23;96724.50;5052651;28;20213;-52
2022/06/02 12:19:47;;;;;;;4.30;3.90;;;;;;;25.20;54.82;96716.41;5061232;28;20198;-53
2022/06/02 12:22:32;;;;;;;4.55;3.90;;;;;;;25.22;55.75;96715.09;5073471;28;20659;-52
2022/06/02 12:25:32;;;;;;;4.15;3.85;;;;;;;25.32;56.83;96711.84;5067296;28;20202;-54
2022/06/02 12:28:10;;;;;;;4.28;3.88;;;;;;;25.27;55.24;96714.41;5040859;28;20561;-52
2022/06/02 12:30:52;;;;;;;3.83;3.50;;;;;;;25.19;56.06;96712.03;5061165;28;20203;-53
2022/06/02 12:33:31;;;;;;;4.03;3.63;;;;;;;25.20;56.52;96716.41;5074061;28;20209;-53
2022/06/02 12:36:27;;;;;;;3.83;3.53;;;;;;;25.15;54.05;96710.88;5048257;28;20207;-51
2022/06/02 12:39:15;;;;;;;4.40;4.10;;;;;;;25.07;53.97;96713.91;5061147;28;20238;-54
2022/06/02 12:42:45;;;;;;;4.15;3.85;;;;;;;24.83;56.26;96709.47;5074358;28;20518;-53
2022/06/02 12:45:46;;;;;;;4.05;3.75;;;;;;;24.69;56.88;96709.63;5073584;28;20218;-53
2022/06/02 12:49:04;;;;;;;4.15;3.85;;;;;;;24.48;58.19;96710.13;5078292;28;20205;-54